Time,TemperatureF,DewpointF,PressureIn,WindDirection,WindDirectionDegrees,WindSpeedMPH,WindSpeedGustMPH,Humidity,HourlyPrecipIn,Conditions,Clouds,dailyrainin,SoftwareType,DateUTC
2013-04-13 00:00:00,74.9,66.8,29.89,West,271,1.0,1.0,76,0.00,,,0.00,Wunderground v.1.15,2013-04-13 04:00:00,
2013-04-13 00:04:00,74.8,66.7,29.89,West,274,1.0,4.0,76,0.00,,,0.00,Wunderground v.1.15,2013-04-13 04:04:00,
2013-04-13 00:10:00,74.7,67.0,29.89,WNW,288,2.0,2.0,77,0.00,,,0.00,Wunderground v.1.15,2013-04-13 04:10:00,
2013-04-13 00:16:00,74.5,66.8,29.90,West,279,3.0,4.0,77,0.00,,,0.00,Wunderground v.1.15,2013-04-13 04:16:00,
2013-04-13 00:22:00,74.1,66.8,29.90,WSW,237,4.0,7.0,78,0.00,,,0.00,Wunderground v.1.15,2013-04-13 04:22:00,
2013-04-13 00:28:00,73.5,66.9,29.91,NW,317,6.0,9.0,80,0.00,,,0.00,Wunderground v.1.15,2013-04-13 04:28:00,
2013-04-13 00:30:00,73.2,67.0,29.91,WNW,294,7.0,7.0,81,0.00,,,0.00,Wunderground v.1.15,2013-04-13 04:30:00,
2013-04-13 00:38:00,71.8,67.4,29.91,NW,318,7.0,8.0,86,0.00,,,0.00,Wunderground v.1.15,2013-04-13 04:38:00,
2013-04-13 00:44:00,71.0,67.3,29.91,West,265,6.0,7.0,88,0.00,,,0.00,Wunderground v.1.15,2013-04-13 04:44:00,
2013-04-13 00:50:00,70.5,67.4,29.91,WNW,289,5.0,5.0,90,0.00,,,0.00,Wunderground v.1.15,2013-04-13 04:50:00,
2013-04-13 00:56:00,70.2,67.1,29.91,West,267,4.0,8.0,90,0.00,,,0.00,Wunderground v.1.15,2013-04-13 04:56:00,
2013-04-13 01:02:00,70.0,67.3,29.90,WNW,288,4.0,5.0,91,0.00,,,0.00,Wunderground v.1.15,2013-04-13 05:02:00,
2013-04-13 01:08:00,70.0,67.3,29.90,West,271,3.0,5.0,91,0.00,,,0.00,Wunderground v.1.15,2013-04-13 05:08:00,
2013-04-13 01:14:00,70.0,67.3,29.90,SSW,211,1.0,2.0,91,0.00,,,0.00,Wunderground v.1.15,2013-04-13 05:14:00,
2013-04-13 01:20:00,70.1,67.3,29.90,SSE,168,1.0,1.0,91,0.00,,,0.00,Wunderground v.1.15,2013-04-13 05:20:00,
2013-04-13 01:26:00,69.9,67.2,29.90,South,180,1.0,2.0,91,0.00,,,0.00,Wunderground v.1.15,2013-04-13 05:26:00,
2013-04-13 01:32:00,69.8,67.1,29.90,SSW,210,1.0,3.0,91,0.00,,,0.00,Wunderground v.1.15,2013-04-13 05:32:00,
2013-04-13 01:38:00,69.8,67.1,29.90,South,190,2.0,3.0,91,0.00,,,0.00,Wunderground v.1.15,2013-04-13 05:38:00,
2013-04-13 01:44:00,69.8,67.1,29.90,SW,221,2.0,4.0,91,0.00,,,0.00,Wunderground v.1.15,2013-04-13 05:44:00,
2013-04-13 01:50:00,70.0,67.3,29.90,South,183,2.0,3.0,91,0.00,,,0.00,Wunderground v.1.15,2013-04-13 05:50:00,
2013-04-13 01:56:00,70.1,67.3,29.90,SSE,167,2.0,3.0,91,0.00,,,0.00,Wunderground v.1.15,2013-04-13 05:56:00,
2013-04-13 02:02:00,70.3,67.5,29.90,SSW,200,2.0,8.0,91,0.00,,,0.00,Wunderground v.1.15,2013-04-13 06:02:00,
2013-04-13 02:08:00,70.3,67.5,29.90,SSW,208,2.0,8.0,91,0.00,,,0.00,Wunderground v.1.15,2013-04-13 06:08:00,
2013-04-13 02:14:00,70.3,67.5,29.89,West,279,1.0,1.0,91,0.00,,,0.00,Wunderground v.1.15,2013-04-13 06:14:00,
2013-04-13 02:20:00,70.2,67.4,29.90,West,260,1.0,1.0,91,0.00,,,0.00,Wunderground v.1.15,2013-04-13 06:20:00,
2013-04-13 02:26:00,70.3,67.5,29.90,West,271,1.0,1.0,91,0.00,,,0.00,Wunderground v.1.15,2013-04-13 06:26:00,
2013-04-13 02:34:00,70.3,67.5,29.90,West,277,0.0,1.0,91,0.00,,,0.00,Wunderground v.1.15,2013-04-13 06:34:00,
2013-04-13 02:42:00,70.2,67.4,29.90,West,273,1.0,2.0,91,0.00,,,0.00,Wunderground v.1.15,2013-04-13 06:42:00,
2013-04-13 02:50:00,70.3,67.5,29.90,West,261,1.0,1.0,91,0.00,,,0.00,Wunderground v.1.15,2013-04-13 06:50:00,
2013-04-13 02:56:00,70.3,67.5,29.90,West,261,1.0,2.0,91,0.00,,,0.00,Wunderground v.1.15,2013-04-13 06:56:00,
2013-04-13 03:02:00,70.2,67.4,29.89,West,271,1.0,4.0,91,0.00,,,0.00,Wunderground v.1.15,2013-04-13 07:02:00,
2013-04-13 03:08:00,70.1,67.3,29.89,West,276,2.0,4.0,91,0.00,,,0.00,Wunderground v.1.15,2013-04-13 07:08:00,
2013-04-13 03:14:00,70.2,67.4,29.90,West,275,3.0,4.0,91,0.00,,,0.00,Wunderground v.1.15,2013-04-13 07:14:00,
2013-04-13 03:20:00,70.2,67.4,29.90,NW,322,3.0,3.0,91,0.00,,,0.00,Wunderground v.1.15,2013-04-13 07:20:00,
2013-04-13 03:26:00,70.2,67.4,29.90,West,279,3.0,4.0,91,0.00,,,0.00,Wunderground v.1.15,2013-04-13 07:26:00,
2013-04-13 03:32:00,70.1,67.3,29.91,West,280,4.0,7.0,91,0.00,,,0.00,Wunderground v.1.15,2013-04-13 07:32:00,
2013-04-13 03:38:00,70.1,67.3,29.90,West,269,4.0,7.0,91,0.00,,,0.00,Wunderground v.1.15,2013-04-13 07:38:00,
2013-04-13 03:44:00,70.0,66.9,29.90,WSW,252,4.0,5.0,90,0.00,,,0.00,Wunderground v.1.15,2013-04-13 07:44:00,
2013-04-13 03:50:00,69.8,66.4,29.90,West,276,4.0,4.0,89,0.00,,,0.00,Wunderground v.1.15,2013-04-13 07:50:00,
2013-04-13 03:56:00,69.7,66.0,29.89,WNW,302,4.0,5.0,88,0.00,,,0.00,Wunderground v.1.15,2013-04-13 07:56:00,
2013-04-13 04:02:00,69.6,65.6,29.90,WNW,293,4.0,7.0,87,0.00,,,0.00,Wunderground v.1.15,2013-04-13 08:02:00,
2013-04-13 04:08:00,69.4,64.4,29.90,WNW,288,5.0,9.0,84,0.00,,,0.00,Wunderground v.1.15,2013-04-13 08:08:00,
2013-04-13 04:18:00,69.1,61.6,29.90,South,179,3.0,5.0,77,0.00,,,0.00,Wunderground v.1.15,2013-04-13 08:18:00,
2013-04-13 04:26:00,68.8,60.2,29.90,WSW,252,3.0,6.0,74,0.00,,,0.00,Wunderground v.1.15,2013-04-13 08:26:00,
2013-04-13 04:32:00,68.6,59.6,29.90,SW,236,3.0,3.0,73,0.00,,,0.00,Wunderground v.1.15,2013-04-13 08:32:00,
2013-04-13 04:40:00,68.4,56.6,29.91,West,263,4.0,4.0,66,0.00,,,0.00,Wunderground v.1.15,2013-04-13 08:40:00,
2013-04-13 04:46:00,68.2,56.8,29.91,SW,215,3.0,4.0,67,0.00,,,0.00,Wunderground v.1.15,2013-04-13 08:46:00,
2013-04-13 04:52:00,67.8,56.9,29.91,SSW,203,2.0,2.0,68,0.00,,,0.00,Wunderground v.1.15,2013-04-13 08:52:00,
2013-04-13 04:58:00,67.5,57.0,29.91,West,265,2.0,2.0,69,0.00,,,0.00,Wunderground v.1.15,2013-04-13 08:58:00,
2013-04-13 05:04:00,67.1,56.2,29.91,SSE,159,2.0,8.0,68,0.00,,,0.00,Wunderground v.1.15,2013-04-13 09:04:00,
2013-04-13 05:10:00,66.9,56.0,29.91,NW,306,2.0,2.0,68,0.00,,,0.00,Wunderground v.1.15,2013-04-13 09:10:00,
2013-04-13 05:16:00,66.8,55.1,29.92,SSE,164,2.0,5.0,66,0.00,,,0.00,Wunderground v.1.15,2013-04-13 09:16:00,
2013-04-13 05:22:00,66.8,54.2,29.92,WSW,242,3.0,3.0,64,0.00,,,0.00,Wunderground v.1.15,2013-04-13 09:22:00,
2013-04-13 05:30:00,66.7,54.6,29.92,NW,311,2.0,4.0,65,0.00,,,0.00,Wunderground v.1.15,2013-04-13 09:30:00,
2013-04-13 05:38:00,66.5,53.5,29.92,South,191,3.0,10.0,63,0.00,,,0.00,Wunderground v.1.15,2013-04-13 09:38:00,
2013-04-13 05:46:00,66.3,53.3,29.92,West,280,3.0,4.0,63,0.00,,,0.00,Wunderground v.1.15,2013-04-13 09:46:00,
2013-04-13 05:52:00,66.0,52.6,29.92,SSE,160,3.0,3.0,62,0.00,,,0.00,Wunderground v.1.15,2013-04-13 09:52:00,
2013-04-13 05:58:00,65.8,52.4,29.93,WNW,290,3.0,3.0,62,0.00,,,0.00,Wunderground v.1.15,2013-04-13 09:58:00,
2013-04-13 06:04:00,65.7,52.3,29.93,West,279,3.0,6.0,62,0.00,,,0.00,Wunderground v.1.15,2013-04-13 10:04:00,
2013-04-13 06:10:00,65.6,51.3,29.94,SW,225,3.0,3.0,60,0.00,,,0.00,Wunderground v.1.15,2013-04-13 10:10:00,
2013-04-13 06:16:00,65.5,51.2,29.94,SSW,202,3.0,4.0,60,0.00,,,0.00,Wunderground v.1.15,2013-04-13 10:16:00,
2013-04-13 06:22:00,65.4,51.6,29.94,NW,309,3.0,5.0,61,0.00,,,0.00,Wunderground v.1.15,2013-04-13 10:22:00,
2013-04-13 06:28:00,65.1,51.3,29.94,West,261,3.0,5.0,61,0.00,,,0.00,Wunderground v.1.15,2013-04-13 10:28:00,
2013-04-13 06:34:00,64.7,50.9,29.94,WSW,255,3.0,3.0,61,0.00,,,0.00,Wunderground v.1.15,2013-04-13 10:34:00,
2013-04-13 06:40:00,64.3,51.0,29.94,WNW,299,3.0,3.0,62,0.00,,,0.00,Wunderground v.1.15,2013-04-13 10:40:00,
2013-04-13 06:50:00,63.7,50.4,29.94,NE,39,3.0,3.0,62,0.00,,,0.00,Wunderground v.1.15,2013-04-13 10:50:00,
2013-04-13 06:56:00,63.2,50.4,29.94,WNW,290,3.0,3.0,63,0.00,,,0.00,Wunderground v.1.15,2013-04-13 10:56:00,
2013-04-13 07:02:00,62.9,50.1,29.95,WSW,254,3.0,4.0,63,0.00,,,0.00,Wunderground v.1.15,2013-04-13 11:02:00,
2013-04-13 07:08:00,62.8,50.4,29.95,South,191,3.0,6.0,64,0.00,,,0.00,Wunderground v.1.15,2013-04-13 11:08:00,
2013-04-13 07:14:00,62.6,50.2,29.95,WSW,246,3.0,5.0,64,0.00,,,0.00,Wunderground v.1.15,2013-04-13 11:14:00,
2013-04-13 07:20:00,62.6,50.2,29.95,SSW,199,3.0,3.0,64,0.00,,,0.00,Wunderground v.1.15,2013-04-13 11:20:00,
2013-04-13 07:26:00,62.4,50.1,29.96,SW,236,3.0,4.0,64,0.00,,,0.00,Wunderground v.1.15,2013-04-13 11:26:00,
2013-04-13 07:32:00,62.3,50.4,29.95,WSW,248,3.0,3.0,65,0.00,,,0.00,Wunderground v.1.15,2013-04-13 11:32:00,
2013-04-13 07:38:00,62.1,50.2,29.95,SSW,205,2.0,3.0,65,0.00,,,0.00,Wunderground v.1.15,2013-04-13 11:38:00,
2013-04-13 07:48:00,61.9,50.0,29.96,ENE,65,2.0,2.0,65,0.00,,,0.00,Wunderground v.1.15,2013-04-13 11:48:00,
2013-04-13 07:54:00,62.0,50.1,29.97,SSE,163,2.0,2.0,65,0.00,,,0.00,Wunderground v.1.15,2013-04-13 11:54:00,
2013-04-13 08:02:00,62.0,50.1,29.98,WSW,238,2.0,8.0,65,0.00,,,0.00,Wunderground v.1.15,2013-04-13 12:02:00,
2013-04-13 08:08:00,62.4,50.1,29.98,WSW,256,2.0,8.0,64,0.00,,,0.00,Wunderground v.1.15,2013-04-13 12:08:00,
2013-04-13 08:18:00,62.6,50.2,29.98,NNW,348,2.0,3.0,64,0.00,,,0.00,Wunderground v.1.15,2013-04-13 12:18:00,
2013-04-13 08:24:00,62.6,50.2,29.99,WSW,250,1.0,2.0,64,0.00,,,0.00,Wunderground v.1.15,2013-04-13 12:24:00,
2013-04-13 08:30:00,62.7,50.3,29.99,NW,320,2.0,2.0,64,0.00,,,0.00,Wunderground v.1.15,2013-04-13 12:30:00,
2013-04-13 08:38:00,63.3,50.9,29.99,ESE,104,1.0,3.0,64,0.00,,,0.00,Wunderground v.1.15,2013-04-13 12:38:00,
2013-04-13 08:44:00,63.7,50.4,30.00,SW,236,1.0,3.0,62,0.00,,,0.00,Wunderground v.1.15,2013-04-13 12:44:00,
2013-04-13 08:50:00,64.1,50.4,30.00,WSW,242,2.0,2.0,61,0.00,,,0.00,Wunderground v.1.15,2013-04-13 12:50:00,
2013-04-13 08:58:00,65.0,49.9,30.00,South,179,2.0,3.0,58,0.00,,,0.00,Wunderground v.1.15,2013-04-13 12:58:00,
2013-04-13 09:04:00,65.4,49.8,30.01,NE,46,2.0,7.0,57,0.00,,,0.00,Wunderground v.1.15,2013-04-13 13:04:00,
2013-04-13 09:14:00,66.2,49.6,30.01,WNW,283,1.0,3.0,55,0.00,,,0.00,Wunderground v.1.15,2013-04-13 13:14:00,
2013-04-13 09:20:00,66.2,49.6,30.01,SW,223,2.0,2.0,55,0.00,,,0.00,Wunderground v.1.15,2013-04-13 13:20:00,
2013-04-13 09:28:00,66.2,49.1,30.01,South,179,3.0,5.0,54,0.00,,,0.00,Wunderground v.1.15,2013-04-13 13:28:00,
2013-04-13 09:34:00,66.4,49.2,30.02,SW,236,3.0,3.0,54,0.00,,,0.00,Wunderground v.1.15,2013-04-13 13:34:00,
2013-04-13 09:40:00,66.6,48.9,30.02,SW,229,2.0,2.0,53,0.00,,,0.00,Wunderground v.1.15,2013-04-13 13:40:00,
2013-04-13 09:48:00,67.3,49.6,30.01,WSW,242,3.0,4.0,53,0.00,,,0.00,Wunderground v.1.15,2013-04-13 13:48:00,
2013-04-13 09:54:00,67.9,49.6,30.01,SSE,152,2.0,3.0,52,0.00,,,0.00,Wunderground v.1.15,2013-04-13 13:54:00,
2013-04-13 10:02:00,68.2,47.8,30.01,SSW,211,3.0,5.0,48,0.00,,,0.00,Wunderground v.1.15,2013-04-13 14:02:00,
2013-04-13 10:08:00,68.8,48.9,30.02,ESE,105,4.0,5.0,49,0.00,,,0.00,Wunderground v.1.15,2013-04-13 14:08:00,
2013-04-13 10:14:00,69.2,48.7,30.02,WSW,252,3.0,4.0,48,0.00,,,0.00,Wunderground v.1.15,2013-04-13 14:14:00,
2013-04-13 10:20:00,69.7,48.0,30.02,South,183,3.0,3.0,46,0.00,,,0.00,Wunderground v.1.15,2013-04-13 14:20:00,
2013-04-13 10:28:00,69.6,47.9,30.02,East,83,4.0,6.0,46,0.00,,,0.00,Wunderground v.1.15,2013-04-13 14:28:00,
2013-04-13 10:34:00,70.2,49.6,30.02,SE,126,4.0,4.0,48,0.00,,,0.00,Wunderground v.1.15,2013-04-13 14:34:00,
2013-04-13 10:40:00,71.4,48.3,30.02,SSE,147,2.0,3.0,44,0.00,,,0.00,Wunderground v.1.15,2013-04-13 14:40:00,
2013-04-13 10:50:00,71.4,48.3,30.02,ENE,57,3.0,3.0,44,0.00,,,0.00,Wunderground v.1.15,2013-04-13 14:50:00,
2013-04-13 10:58:00,72.8,48.4,30.02,SSE,163,3.0,3.0,42,0.00,,,0.00,Wunderground v.1.15,2013-04-13 14:58:00,
2013-04-13 11:08:00,73.1,48.0,30.02,SSW,192,3.0,7.0,41,0.00,,,0.00,Wunderground v.1.15,2013-04-13 15:08:00,
2013-04-13 11:16:00,73.1,48.0,30.02,SSW,211,2.0,3.0,41,0.00,,,0.00,Wunderground v.1.15,2013-04-13 15:16:00,
2013-04-13 11:22:00,73.5,49.0,30.02,SSE,151,2.0,3.0,42,0.00,,,0.00,Wunderground v.1.15,2013-04-13 15:22:00,
2013-04-13 11:28:00,74.1,47.6,30.02,SW,232,2.0,3.0,39,0.00,,,0.00,Wunderground v.1.15,2013-04-13 15:28:00,
2013-04-13 11:34:00,74.8,48.2,30.02,SW,218,2.0,3.0,39,0.00,,,0.00,Wunderground v.1.15,2013-04-13 15:34:00,
2013-04-13 11:40:00,75.1,47.0,30.02,NNE,23,2.0,2.0,37,0.00,,,0.00,Wunderground v.1.15,2013-04-13 15:40:00,
2013-04-13 11:46:00,75.7,48.3,30.03,West,280,1.0,2.0,38,0.00,,,0.00,Wunderground v.1.15,2013-04-13 15:46:00,
2013-04-13 11:52:00,74.8,47.5,30.02,WNW,287,2.0,2.0,38,0.00,,,0.00,Wunderground v.1.15,2013-04-13 15:52:00,
2013-04-13 11:58:00,75.5,48.1,30.02,SSE,156,2.0,3.0,38,0.00,,,0.00,Wunderground v.1.15,2013-04-13 15:58:00,
2013-04-13 12:04:00,76.5,47.6,30.02,South,180,1.0,8.0,36,0.00,,,0.00,Wunderground v.1.15,2013-04-13 16:04:00,
2013-04-13 12:10:00,78.5,48.6,30.02,SE,132,1.0,1.0,35,0.00,,,0.00,Wunderground v.1.15,2013-04-13 16:10:00,
2013-04-13 12:16:00,78.6,47.9,30.02,West,271,2.0,5.0,34,0.00,,,0.00,Wunderground v.1.15,2013-04-13 16:16:00,
2013-04-13 12:22:00,76.3,48.1,30.02,SSE,163,3.0,3.0,37,0.00,,,0.00,Wunderground v.1.15,2013-04-13 16:22:00,
2013-04-13 12:28:00,76.5,48.3,30.02,WNW,303,2.0,4.0,37,0.00,,,0.00,Wunderground v.1.15,2013-04-13 16:28:00,
2013-04-13 12:34:00,77.2,48.2,30.01,ENE,69,2.0,2.0,36,0.00,,,0.00,Wunderground v.1.15,2013-04-13 16:34:00,
2013-04-13 12:40:00,77.2,48.2,30.01,East,101,2.0,2.0,36,0.00,,,0.00,Wunderground v.1.15,2013-04-13 16:40:00,
2013-04-13 12:46:00,77.3,49.0,30.01,West,259,2.0,7.0,37,0.00,,,0.00,Wunderground v.1.15,2013-04-13 16:46:00,
2013-04-13 12:52:00,76.6,48.4,30.01,SW,220,4.0,4.0,37,0.00,,,0.00,Wunderground v.1.15,2013-04-13 16:52:00,
2013-04-13 12:58:00,78.3,48.4,30.00,ESE,122,3.0,4.0,35,0.00,,,0.00,Wunderground v.1.15,2013-04-13 16:58:00,
2013-04-13 13:04:00,79.7,48.8,30.00,ENE,64,2.0,6.0,34,0.00,,,0.00,Wunderground v.1.15,2013-04-13 17:04:00,
2013-04-13 13:10:00,79.6,49.5,30.00,East,81,2.0,2.0,35,0.00,,,0.00,Wunderground v.1.15,2013-04-13 17:10:00,
2013-04-13 13:16:00,80.2,50.1,30.00,NW,318,2.0,2.0,35,0.00,,,0.00,Wunderground v.1.15,2013-04-13 17:16:00,
2013-04-13 13:22:00,79.4,49.4,30.00,NW,317,3.0,4.0,35,0.00,,,0.00,Wunderground v.1.15,2013-04-13 17:22:00,
2013-04-13 13:28:00,79.1,49.1,29.99,East,92,3.0,4.0,35,0.00,,,0.00,Wunderground v.1.15,2013-04-13 17:28:00,
2013-04-13 13:34:00,81.8,50.7,29.99,WNW,282,1.0,3.0,34,0.00,,,0.00,Wunderground v.1.15,2013-04-13 17:34:00,
2013-04-13 13:44:00,78.8,48.8,29.99,WSW,257,4.0,5.0,35,0.00,,,0.00,Wunderground v.1.15,2013-04-13 17:44:00,
2013-04-13 13:50:00,79.1,49.8,29.99,West,272,3.0,4.0,36,0.00,,,0.00,Wunderground v.1.15,2013-04-13 17:50:00,
2013-04-13 13:56:00,79.1,50.6,29.99,NNW,339,2.0,4.0,37,0.00,,,0.00,Wunderground v.1.15,2013-04-13 17:56:00,
2013-04-13 14:04:00,79.6,50.3,29.99,West,267,2.0,7.0,36,0.00,,,0.00,Wunderground v.1.15,2013-04-13 18:04:00,
2013-04-13 14:10:00,78.4,50.0,29.99,South,178,4.0,4.0,37,0.00,,,0.00,Wunderground v.1.15,2013-04-13 18:10:00,
2013-04-13 14:20:00,80.3,50.9,29.98,South,172,2.0,2.0,36,0.00,,,0.00,Wunderground v.1.15,2013-04-13 18:20:00,
2013-04-13 14:26:00,81.6,51.3,29.98,WSW,255,1.0,4.0,35,0.00,,,0.00,Wunderground v.1.15,2013-04-13 18:26:00,
2013-04-13 14:28:00,81.3,51.0,29.98,WNW,294,2.0,4.0,35,0.00,,,0.00,Wunderground v.1.15,2013-04-13 18:28:00,
2013-04-13 14:30:00,81.1,50.1,29.98,WNW,288,1.0,1.0,34,0.00,,,0.00,Wunderground v.1.15,2013-04-13 18:30:00,
2013-04-13 14:32:00,81.1,50.9,29.97,WNW,298,1.0,4.0,35,0.00,,,0.00,Wunderground v.1.15,2013-04-13 18:32:00,
2013-04-13 14:38:00,80.1,50.7,29.97,West,276,3.0,5.0,36,0.00,,,0.00,Wunderground v.1.15,2013-04-13 18:38:00,
2013-04-13 14:40:00,79.9,50.6,29.97,WSW,256,3.0,3.0,36,0.00,,,0.00,Wunderground v.1.15,2013-04-13 18:40:00,
2013-04-13 14:46:00,80.1,50.7,29.97,WSW,253,3.0,3.0,36,0.00,,,0.00,Wunderground v.1.15,2013-04-13 18:46:00,
2013-04-13 14:52:00,80.3,50.9,29.97,NW,305,1.0,3.0,36,0.00,,,0.00,Wunderground v.1.15,2013-04-13 18:52:00,
2013-04-13 14:58:00,82.0,50.1,29.96,West,275,2.0,4.0,33,0.00,,,0.00,Wunderground v.1.15,2013-04-13 18:58:00,
2013-04-13 15:04:00,82.7,54.5,29.96,ESE,105,3.0,9.0,38,0.00,,,0.00,Wunderground v.1.15,2013-04-13 19:04:00,
2013-04-13 15:10:00,78.7,53.7,29.96,East,98,6.0,6.0,42,0.00,,,0.00,Wunderground v.1.15,2013-04-13 19:10:00,
2013-04-13 15:16:00,78.5,53.5,29.96,NNE,28,5.0,8.0,42,0.00,,,0.00,Wunderground v.1.15,2013-04-13 19:16:00,
2013-04-13 15:22:00,79.0,53.9,29.95,East,97,3.0,5.0,42,0.00,,,0.00,Wunderground v.1.15,2013-04-13 19:22:00,
2013-04-13 15:28:00,79.6,53.8,29.95,SE,139,3.0,5.0,41,0.00,,,0.00,Wunderground v.1.15,2013-04-13 19:28:00,
2013-04-13 15:34:00,79.4,54.3,29.94,SE,125,3.0,4.0,42,0.00,,,0.00,Wunderground v.1.15,2013-04-13 19:34:00,
2013-04-13 15:40:00,79.5,53.1,29.95,East,80,4.0,4.0,40,0.00,,,0.00,Wunderground v.1.15,2013-04-13 19:40:00,
2013-04-13 15:46:00,79.2,53.5,29.94,SE,136,4.0,5.0,41,0.00,,,0.00,Wunderground v.1.15,2013-04-13 19:46:00,
2013-04-13 15:52:00,79.0,53.9,29.94,ESE,123,4.0,8.0,42,0.00,,,0.00,Wunderground v.1.15,2013-04-13 19:52:00,
2013-04-13 15:58:00,78.2,53.9,29.94,East,99,5.0,8.0,43,0.00,,,0.00,Wunderground v.1.15,2013-04-13 19:58:00,
2013-04-13 16:04:00,78.6,54.2,29.94,ESE,107,5.0,9.0,43,0.00,,,0.00,Wunderground v.1.15,2013-04-13 20:04:00,
2013-04-13 16:10:00,77.9,54.2,29.93,East,85,5.0,5.0,44,0.00,,,0.00,Wunderground v.1.15,2013-04-13 20:10:00,
2013-04-13 16:18:00,78.2,53.9,29.93,ESE,105,4.0,6.0,43,0.00,,,0.00,Wunderground v.1.15,2013-04-13 20:18:00,
2013-04-13 16:24:00,78.6,54.2,29.92,ESE,122,4.0,4.0,43,0.00,,,0.00,Wunderground v.1.15,2013-04-13 20:24:00,
2013-04-13 16:30:00,78.3,54.0,29.92,SSE,167,3.0,3.0,43,0.00,,,0.00,Wunderground v.1.15,2013-04-13 20:30:00,
2013-04-13 16:36:00,77.8,53.5,29.92,East,96,4.0,7.0,43,0.00,,,0.00,Wunderground v.1.15,2013-04-13 20:36:00,
2013-04-13 16:42:00,77.5,53.9,29.92,ENE,73,4.0,5.0,44,0.00,,,0.00,Wunderground v.1.15,2013-04-13 20:42:00,
2013-04-13 16:48:00,78.1,53.8,29.93,SE,139,4.0,6.0,43,0.00,,,0.00,Wunderground v.1.15,2013-04-13 20:48:00,
2013-04-13 16:54:00,77.9,54.2,29.93,SSE,154,4.0,5.0,44,0.00,,,0.00,Wunderground v.1.15,2013-04-13 20:54:00,
2013-04-13 17:00:00,78.0,54.3,29.93,SSE,150,5.0,5.0,44,0.00,,,0.00,Wunderground v.1.15,2013-04-13 21:00:00,
2013-04-13 17:08:00,78.2,54.5,29.93,ESE,111,4.0,10.0,44,0.00,,,0.00,Wunderground v.1.15,2013-04-13 21:08:00,
2013-04-13 17:14:00,78.3,55.2,29.93,ESE,123,4.0,7.0,45,0.00,,,0.00,Wunderground v.1.15,2013-04-13 21:14:00,
2013-04-13 17:20:00,78.1,55.0,29.93,SE,133,4.0,5.0,45,0.00,,,0.00,Wunderground v.1.15,2013-04-13 21:20:00,
2013-04-13 17:26:00,77.3,55.5,29.93,ESE,107,4.0,6.0,47,0.00,,,0.00,Wunderground v.1.15,2013-04-13 21:26:00,
2013-04-13 17:32:00,77.6,55.2,29.93,ESE,122,4.0,5.0,46,0.00,,,0.00,Wunderground v.1.15,2013-04-13 21:32:00,
2013-04-13 17:38:00,77.5,54.5,29.93,SE,136,4.0,5.0,45,0.00,,,0.00,Wunderground v.1.15,2013-04-13 21:38:00,
2013-04-13 17:44:00,77.4,55.0,29.94,ESE,106,4.0,4.0,46,0.00,,,0.00,Wunderground v.1.15,2013-04-13 21:44:00,
2013-04-13 17:50:00,77.1,54.7,29.93,ENE,77,5.0,5.0,46,0.00,,,0.00,Wunderground v.1.15,2013-04-13 21:50:00,
2013-04-13 17:56:00,76.9,55.1,29.93,ESE,102,4.0,5.0,47,0.00,,,0.00,Wunderground v.1.15,2013-04-13 21:56:00,
2013-04-13 18:02:00,76.9,54.5,29.93,East,89,4.0,7.0,46,0.00,,,0.00,Wunderground v.1.15,2013-04-13 22:02:00,
2013-04-13 18:08:00,76.4,55.3,29.94,ESE,105,5.0,8.0,48,0.00,,,0.00,Wunderground v.1.15,2013-04-13 22:08:00,
2013-04-13 18:14:00,75.5,54.4,29.94,East,100,6.0,8.0,48,0.00,,,0.00,Wunderground v.1.15,2013-04-13 22:14:00,
2013-04-13 18:20:00,75.0,55.1,29.94,ESE,102,7.0,7.0,50,0.00,,,0.00,Wunderground v.1.15,2013-04-13 22:20:00,
2013-04-13 18:26:00,74.4,55.6,29.94,East,99,6.0,9.0,52,0.00,,,0.00,Wunderground v.1.15,2013-04-13 22:26:00,
2013-04-13 18:32:00,74.1,55.9,29.94,ESE,114,6.0,7.0,53,0.00,,,0.00,Wunderground v.1.15,2013-04-13 22:32:00,
2013-04-13 18:38:00,73.7,55.5,29.95,East,98,6.0,10.0,53,0.00,,,0.00,Wunderground v.1.15,2013-04-13 22:38:00,
2013-04-13 18:44:00,73.3,55.1,29.95,East,82,6.0,9.0,53,0.00,,,0.00,Wunderground v.1.15,2013-04-13 22:44:00,
2013-04-13 18:50:00,72.8,55.2,29.95,ESE,103,6.0,7.0,54,0.00,,,0.00,Wunderground v.1.15,2013-04-13 22:50:00,
2013-04-13 18:56:00,72.4,54.8,29.95,ESE,109,6.0,10.0,54,0.00,,,0.00,Wunderground v.1.15,2013-04-13 22:56:00,
2013-04-13 19:02:00,71.6,54.1,29.96,East,80,6.0,8.0,54,0.00,,,0.00,Wunderground v.1.15,2013-04-13 23:02:00,
2013-04-13 19:08:00,71.2,54.2,29.96,SE,126,5.0,8.0,55,0.00,,,0.00,Wunderground v.1.15,2013-04-13 23:08:00,
2013-04-13 19:14:00,70.5,54.0,29.96,East,100,5.0,7.0,56,0.00,,,0.00,Wunderground v.1.15,2013-04-13 23:14:00,
2013-04-13 19:20:00,69.9,53.5,29.96,ESE,105,6.0,7.0,56,0.00,,,0.00,Wunderground v.1.15,2013-04-13 23:20:00,
2013-04-13 19:28:00,69.2,53.8,29.96,East,101,5.0,7.0,58,0.00,,,0.00,Wunderground v.1.15,2013-04-13 23:28:00,
2013-04-13 19:34:00,68.7,53.3,29.97,ESE,108,4.0,5.0,58,0.00,,,0.00,Wunderground v.1.15,2013-04-13 23:34:00,
2013-04-13 19:40:00,68.3,53.4,29.97,ENE,76,4.0,4.0,59,0.00,,,0.00,Wunderground v.1.15,2013-04-13 23:40:00,
2013-04-13 19:46:00,67.8,53.9,29.97,East,92,3.0,4.0,61,0.00,,,0.00,Wunderground v.1.15,2013-04-13 23:46:00,
2013-04-13 19:54:00,67.1,54.1,29.97,East,97,3.0,3.0,63,0.00,,,0.00,Wunderground v.1.15,2013-04-13 23:54:00,
2013-04-13 20:00:00,66.5,53.9,29.98,ESE,103,2.0,2.0,64,0.00,,,0.00,Wunderground v.1.15,2013-04-14 00:00:00,
2013-04-13 20:08:00,66.0,54.3,29.98,East,96,2.0,11.0,66,0.00,,,0.00,Wunderground v.1.15,2013-04-14 00:08:00,
2013-04-13 20:14:00,65.7,54.4,29.98,East,101,2.0,3.0,67,0.00,,,0.00,Wunderground v.1.15,2013-04-14 00:14:00,
2013-04-13 20:20:00,65.4,55.0,29.98,ENE,70,1.0,1.0,69,0.00,,,0.00,Wunderground v.1.15,2013-04-14 00:20:00,
2013-04-13 20:26:00,65.4,55.4,29.98,ENE,76,2.0,4.0,70,0.00,,,0.00,Wunderground v.1.15,2013-04-14 00:26:00,
2013-04-13 20:32:00,65.0,55.4,29.98,East,92,2.0,2.0,71,0.00,,,0.00,Wunderground v.1.15,2013-04-14 00:32:00,
2013-04-13 20:38:00,64.4,55.2,29.98,East,84,0.0,2.0,72,0.00,,,0.00,Wunderground v.1.15,2013-04-14 00:38:00,
2013-04-13 20:44:00,63.7,54.9,29.98,East,83,0.0,0.0,73,0.00,,,0.00,Wunderground v.1.15,2013-04-14 00:44:00,
2013-04-13 20:50:00,63.1,54.7,29.98,East,82,0.0,0.0,74,0.00,,,0.00,Wunderground v.1.15,2013-04-14 00:50:00,
2013-04-13 20:56:00,62.7,54.7,29.98,East,92,0.0,0.0,75,0.00,,,0.00,Wunderground v.1.15,2013-04-14 00:56:00,
2013-04-13 21:02:00,62.5,55.2,29.98,ENE,78,0.0,1.0,77,0.00,,,0.00,Wunderground v.1.15,2013-04-14 01:02:00,
2013-04-13 21:08:00,62.5,55.5,29.98,ENE,76,0.0,6.0,78,0.00,,,0.00,Wunderground v.1.15,2013-04-14 01:08:00,
2013-04-13 21:14:00,62.6,55.6,29.98,East,80,1.0,1.0,78,0.00,,,0.00,Wunderground v.1.15,2013-04-14 01:14:00,
2013-04-13 21:20:00,62.7,56.1,29.99,ENE,76,1.0,2.0,79,0.00,,,0.00,Wunderground v.1.15,2013-04-14 01:20:00,
2013-04-13 21:28:00,62.3,55.4,29.99,ENE,78,1.0,2.0,78,0.00,,,0.00,Wunderground v.1.15,2013-04-14 01:28:00,
2013-04-13 21:34:00,61.4,55.2,29.99,East,88,0.0,1.0,80,0.00,,,0.00,Wunderground v.1.15,2013-04-14 01:34:00,
2013-04-13 21:40:00,61.2,55.3,29.99,ENE,76,0.0,0.0,81,0.00,,,0.00,Wunderground v.1.15,2013-04-14 01:40:00,
2013-04-13 21:48:00,61.1,55.6,29.99,ENE,76,0.0,0.0,82,0.00,,,0.00,Wunderground v.1.15,2013-04-14 01:48:00,
2013-04-13 21:54:00,61.1,55.9,30.00,ENE,71,0.0,0.0,83,0.00,,,0.00,Wunderground v.1.15,2013-04-14 01:54:00,
2013-04-13 22:00:00,61.2,56.0,30.00,East,82,0.0,0.0,83,0.00,,,0.00,Wunderground v.1.15,2013-04-14 02:00:00,
2013-04-13 22:06:00,61.1,56.2,30.00,ENE,78,0.0,1.0,84,0.00,,,0.00,Wunderground v.1.15,2013-04-14 02:06:00,
2013-04-13 22:12:00,61.3,56.8,30.00,East,80,1.0,2.0,85,0.00,,,0.00,Wunderground v.1.15,2013-04-14 02:12:00,
2013-04-13 22:18:00,61.7,57.1,30.00,East,90,1.0,2.0,85,0.00,,,0.00,Wunderground v.1.15,2013-04-14 02:18:00,
2013-04-13 22:24:00,61.9,57.0,30.01,East,91,1.0,2.0,84,0.00,,,0.00,Wunderground v.1.15,2013-04-14 02:24:00,
2013-04-13 22:30:00,62.2,57.6,30.01,East,82,2.0,3.0,85,0.00,,,0.00,Wunderground v.1.15,2013-04-14 02:30:00,
2013-04-13 22:38:00,62.4,57.5,30.01,East,96,2.0,3.0,84,0.00,,,0.00,Wunderground v.1.15,2013-04-14 02:38:00,
2013-04-13 22:44:00,62.5,57.9,30.01,East,82,1.0,2.0,85,0.00,,,0.00,Wunderground v.1.15,2013-04-14 02:44:00,
2013-04-13 22:50:00,62.5,57.9,30.02,East,85,1.0,1.0,85,0.00,,,0.00,Wunderground v.1.15,2013-04-14 02:50:00,
2013-04-13 22:58:00,62.0,57.1,30.01,East,96,0.0,1.0,84,0.00,,,0.00,Wunderground v.1.15,2013-04-14 02:58:00,
2013-04-13 23:04:00,61.7,57.5,30.02,ENE,73,0.0,2.0,86,0.00,,,0.00,Wunderground v.1.15,2013-04-14 03:04:00,
2013-04-13 23:10:00,61.2,57.0,30.02,ENE,77,0.0,0.0,86,0.00,,,0.00,Wunderground v.1.15,2013-04-14 03:10:00,
2013-04-13 23:16:00,60.9,57.0,30.02,ENE,78,0.0,0.0,87,0.00,,,0.00,Wunderground v.1.15,2013-04-14 03:16:00,
2013-04-13 23:22:00,60.5,56.6,30.02,East,82,0.0,0.0,87,0.00,,,0.00,Wunderground v.1.15,2013-04-14 03:22:00,
2013-04-13 23:28:00,60.4,56.8,30.03,ENE,65,0.0,0.0,88,0.00,,,0.00,Wunderground v.1.15,2013-04-14 03:28:00,
2013-04-13 23:34:00,60.3,57.0,30.02,NE,44,0.0,0.0,89,0.00,,,0.00,Wunderground v.1.15,2013-04-14 03:34:00,
2013-04-13 23:40:00,60.2,57.3,30.02,NE,41,0.0,0.0,90,0.00,,,0.00,Wunderground v.1.15,2013-04-14 03:40:00,
2013-04-13 23:48:00,60.1,57.5,30.03,SE,142,0.0,0.0,91,0.00,,,0.00,Wunderground v.1.15,2013-04-14 03:48:00,
2013-04-13 23:54:00,59.9,57.3,30.02,ESE,121,0.0,0.0,91,0.00,,,0.00,Wunderground v.1.15,2013-04-14 03:54:00,